createdAt,value
2018-12-30T00:01:41.530Z,101083.90
2018-12-30T00:04:11.175Z,101085.25
2018-12-30T00:06:40.985Z,101085.73
2018-12-30T00:09:13.974Z,101081.20
2018-12-30T00:11:43.659Z,101082.07
2018-12-30T00:14:13.286Z,101084.76
2018-12-30T00:16:43.277Z,101091.49
2018-12-30T00:19:15.136Z,101085.25
2018-12-30T00:21:44.657Z,101087.31
2018-12-30T00:24:14.372Z,101089.66
2018-12-30T00:26:44.284Z,101095.05
2018-12-30T00:29:13.969Z,101100.91
2018-12-30T00:31:43.575Z,101098.70
2018-12-30T00:36:41.538Z,101096.73
2018-12-30T00:39:11.085Z,101095.39
2018-12-30T00:41:40.649Z,101100.77
2018-12-30T00:46:38.562Z,101100.91
2018-12-30T00:49:08.091Z,101098.33
2018-12-30T00:51:37.448Z,101093.23
2018-12-30T00:54:07.117Z,101096.52
2018-12-30T00:56:36.714Z,101090.17
2018-12-30T00:59:06.335Z,101090.55
2018-12-30T01:01:35.939Z,101089.36
2018-12-30T01:04:05.618Z,101087.16
2018-12-30T01:06:35.330Z,101093.89
2018-12-30T01:09:06.313Z,101092.55
2018-12-30T01:11:35.754Z,101095.14
2018-12-30T01:14:05.157Z,101091.45
2018-12-30T01:16:34.652Z,101089.62
2018-12-30T01:19:04.489Z,101089.59
2018-12-30T01:21:34.087Z,101093.52
2018-12-30T01:24:03.718Z,101090.34
2018-12-30T01:26:33.247Z,101092.06
2018-12-30T01:29:02.915Z,101093.76
2018-12-30T01:31:32.516Z,101104.40
2018-12-30T01:34:02.013Z,101102.09
2018-12-30T01:36:31.643Z,101100.12
2018-12-30T01:39:01.183Z,101094.25
2018-12-30T01:41:30.680Z,101097.17
2018-12-30T01:44:00.100Z,101104.27
2018-12-30T01:46:29.610Z,101104.50
2018-12-30T01:48:59.314Z,101114.63
2018-12-30T01:51:32.948Z,101107.30
2018-12-30T01:54:00.271Z,101115.22
2018-12-30T01:56:30.352Z,101120.34
2018-12-30T01:58:59.729Z,101115.72
2018-12-30T02:01:29.493Z,101112.40
2018-12-30T02:03:58.992Z,101114.97
2018-12-30T02:06:28.635Z,101112.03
2018-12-30T02:08:58.339Z,101114.92
2018-12-30T02:11:27.786Z,101118.80
2018-12-30T02:13:57.488Z,101117.20
2018-12-30T02:16:26.905Z,101117.33
2018-12-30T02:18:56.510Z,101122.07
2018-12-30T02:21:26.423Z,101120.95
2018-12-30T02:23:57.837Z,101123.39
2018-12-30T02:26:27.481Z,101125.82
2018-12-30T02:28:57.192Z,101122.78
2018-12-30T02:31:26.738Z,101119.84
2018-12-30T02:33:56.355Z,101117.26
2018-12-30T02:36:25.747Z,101122.38
2018-12-30T02:38:55.220Z,101123.34
2018-12-30T02:41:24.892Z,101123.08
2018-12-30T02:43:54.402Z,101123.21
2018-12-30T02:46:24.009Z,101121.61
2018-12-30T02:48:53.723Z,101112.83
2018-12-30T02:51:23.309Z,101110.37
2018-12-30T02:53:52.714Z,101108.77
2018-12-30T02:56:22.543Z,101118.27
2018-12-30T02:58:52.087Z,101116.66
2018-12-30T03:01:21.694Z,101114.11
2018-12-30T03:03:51.248Z,101105.80
2018-12-30T03:06:20.772Z,101110.91
2018-12-30T03:08:50.258Z,101105.67
2018-12-30T03:11:19.895Z,101110.27
2018-12-30T03:13:49.524Z,101109.92
2018-12-30T03:16:19.041Z,101103.79
2018-12-30T03:18:48.901Z,101107.55
2018-12-30T03:21:18.613Z,101105.86
2018-12-30T03:23:48.327Z,101098.03
2018-12-30T03:26:18.064Z,101106.22
2018-12-30T03:28:47.588Z,101102.76
2018-12-30T03:31:17.253Z,101108.64
2018-12-30T03:33:46.693Z,101104.36
2018-12-30T03:36:16.256Z,101104.36
2018-12-30T03:38:45.758Z,101101.86
2018-12-30T03:41:15.138Z,101104.55
2018-12-30T03:43:44.945Z,101099.27
2018-12-30T03:46:14.406Z,101105.63
2018-12-30T03:48:44.015Z,101105.72
2018-12-30T03:51:13.465Z,101102.30
2018-12-30T03:53:43.063Z,101100.96
2018-12-30T03:56:12.757Z,101105.11
2018-12-30T03:58:42.515Z,101102.52
2018-12-30T04:01:11.985Z,101107.53
2018-12-30T04:03:41.532Z,101108.97
2018-12-30T04:06:11.273Z,101112.13
2018-12-30T04:08:40.847Z,101113.69
2018-12-30T04:11:10.661Z,101115.16
2018-12-30T04:13:40.125Z,101113.94
2018-12-30T04:16:09.648Z,101116.24
2018-12-30T04:18:39.110Z,101115.02
2018-12-30T04:21:08.656Z,101116.94
2018-12-30T04:23:38.244Z,101113.91
2018-12-30T04:26:07.852Z,101109.49
2018-12-30T04:28:37.392Z,101111.44
2018-12-30T04:31:06.846Z,101115.94
2018-12-30T04:33:36.307Z,101115.67
2018-12-30T04:36:05.937Z,101122.50
2018-12-30T04:38:35.392Z,101125.28
2018-12-30T04:41:05.043Z,101122.24
2018-12-30T04:43:34.778Z,101125.02
2018-12-30T04:46:04.327Z,101126.84
2018-12-30T04:48:33.832Z,101122.94
2018-12-30T04:51:03.519Z,101126.58
2018-12-30T04:53:32.867Z,101129.86
2018-12-30T04:56:02.351Z,101131.80
2018-12-30T04:58:31.769Z,101131.41
2018-12-30T05:01:01.182Z,101130.55
2018-12-30T05:03:32.564Z,101130.67
2018-12-30T05:06:02.245Z,101135.64
2018-12-30T05:08:31.697Z,101130.02
2018-12-30T05:11:01.191Z,101131.87
2018-12-30T05:13:30.808Z,101128.92
2018-12-30T05:16:00.613Z,101136.97
2018-12-30T05:18:30.111Z,101133.90
2018-12-30T05:20:59.519Z,101133.03
2018-12-30T05:23:28.981Z,101138.40
2018-12-30T05:25:58.507Z,101133.52
2018-12-30T05:28:28.019Z,101140.60
2018-12-30T05:30:57.669Z,101143.28
2018-12-30T05:33:27.143Z,101137.53
2018-12-30T05:35:56.551Z,101147.78
2018-12-30T05:38:26.561Z,101151.45
2018-12-30T05:40:56.032Z,101150.11
2018-12-30T05:43:25.675Z,101158.98
2018-12-30T05:45:55.062Z,101150.20
2018-12-30T05:48:24.650Z,101160.83
2018-12-30T05:50:54.241Z,101164.47
2018-12-30T05:53:25.720Z,101161.78
2018-12-30T05:55:55.277Z,101166.28
2018-12-30T05:58:24.718Z,101160.56
2018-12-30T06:00:54.249Z,101161.39
2018-12-30T06:03:23.777Z,101172.51
2018-12-30T06:05:53.247Z,101177.98
2018-12-30T06:08:22.673Z,101185.52
2018-12-30T06:10:52.641Z,101184.19
2018-12-30T06:13:22.167Z,101186.03
2018-12-30T06:15:51.685Z,101187.38
2018-12-30T06:18:21.271Z,101185.17
2018-12-30T06:20:50.994Z,101191.88
2018-12-30T06:23:20.488Z,101190.53
2018-12-30T06:25:50.190Z,101190.63
2018-12-30T06:28:19.602Z,101187.59
2018-12-30T06:30:49.067Z,101192.08
2018-12-30T06:33:18.608Z,101187.67
2018-12-30T06:35:48.081Z,101197.66
2018-12-30T06:38:17.496Z,101194.11
2018-12-30T06:40:47.003Z,101199.59
2018-12-30T06:43:18.648Z,101202.74
2018-12-30T06:45:48.197Z,101206.02
2018-12-30T06:48:17.815Z,101211.86
2018-12-30T06:50:47.424Z,101218.17
2018-12-30T06:53:17.230Z,101224.87
2018-12-30T06:55:46.788Z,101224.59
2018-12-30T06:58:16.331Z,101228.62
2018-12-30T07:00:46.035Z,101223.86
2018-12-30T07:03:15.572Z,101219.83
2018-12-30T07:05:45.021Z,101221.29
2018-12-30T07:08:14.587Z,101217.75
2018-12-30T07:10:44.185Z,101223.59
2018-12-30T07:13:13.658Z,101225.05
2018-12-30T07:15:43.288Z,101228.16
2018-12-30T07:18:12.760Z,101230.45
2018-12-30T07:20:42.314Z,101232.39
2018-12-30T07:23:11.760Z,101231.17
2018-12-30T07:25:41.430Z,101236.53
2018-12-30T07:28:10.897Z,101245.91
2018-12-30T07:30:40.502Z,101241.11
2018-12-30T07:33:10.113Z,101253.16
2018-12-30T07:35:39.808Z,101250.99
2018-12-30T07:38:09.413Z,101261.80
2018-12-30T07:40:38.830Z,101260.93
2018-12-30T07:43:08.366Z,101260.58
2018-12-30T07:45:37.916Z,101263.34
2018-12-30T07:48:07.395Z,101261.05
2018-12-30T07:50:36.894Z,101269.17
2018-12-30T07:53:13.482Z,101273.19
2018-12-30T07:55:37.771Z,101276.85
2018-12-30T07:58:07.214Z,101275.13
2018-12-30T08:00:36.854Z,101276.94
2018-12-30T08:03:06.643Z,101281.08
2018-12-30T08:05:35.997Z,101289.50
2018-12-30T08:08:06.975Z,101293.60
2018-12-30T08:10:36.492Z,101297.14
2018-12-30T08:13:06.047Z,101296.28
2018-12-30T08:15:35.681Z,101286.55
2018-12-30T08:18:05.281Z,101291.40
2018-12-30T08:20:34.880Z,101294.08
2018-12-30T08:23:04.724Z,101293.99
2018-12-30T08:25:34.255Z,101301.64
2018-12-30T08:28:03.736Z,101298.88
2018-12-30T08:30:33.337Z,101297.53
2018-12-30T08:33:02.711Z,101298.37
2018-12-30T08:35:32.245Z,101302.39
2018-12-30T08:38:01.792Z,101308.14
2018-12-30T08:40:31.424Z,101313.50
2018-12-30T08:43:00.983Z,101312.16
2018-12-30T08:45:30.564Z,101313.89
2018-12-30T08:48:00.013Z,101316.57
2018-12-30T08:50:29.543Z,101315.50
2018-12-30T08:52:59.109Z,101324.69
2018-12-30T08:55:28.609Z,101316.14
2018-12-30T08:57:58.597Z,101321.41
2018-12-30T09:00:28.131Z,101327.13
2018-12-30T09:02:57.705Z,101332.41
2018-12-30T09:05:27.401Z,101321.69
2018-12-30T09:07:56.873Z,101330.09
2018-12-30T09:10:26.272Z,101335.36
2018-12-30T09:12:57.584Z,101338.04
2018-12-30T09:15:27.190Z,101348.32
2018-12-30T09:17:56.789Z,101347.81
2018-12-30T09:20:26.350Z,101346.98
2018-12-30T09:22:56.112Z,101343.80
2018-12-30T09:25:25.610Z,101346.00
2018-12-30T09:27:55.252Z,101350.02
2018-12-30T09:30:24.735Z,101346.39
2018-12-30T09:32:54.280Z,101349.55
2018-12-30T09:35:23.801Z,101354.04
2018-12-30T09:37:53.557Z,101365.63
2018-12-30T09:40:23.013Z,101373.66
2018-12-30T09:42:52.620Z,101363.81
2018-12-30T09:45:22.353Z,101357.59
2018-12-30T09:47:51.926Z,101367.83
2018-12-30T09:50:21.436Z,101362.08
2018-12-30T09:52:50.938Z,101361.13
2018-12-30T09:55:20.548Z,101365.63
2018-12-30T09:57:50.177Z,101363.81
2018-12-30T10:00:19.786Z,101375.48
2018-12-30T10:02:49.417Z,101394.24
2018-12-30T10:05:19.117Z,101409.84
2018-12-30T10:07:48.654Z,101429.08
2018-12-30T10:10:18.381Z,101420.56
2018-12-30T10:12:47.982Z,101420.56
2018-12-30T10:15:17.578Z,101415.20
2018-12-30T10:17:48.635Z,101393.29
2018-12-30T10:20:18.403Z,101404.48
2018-12-30T10:22:47.843Z,101403.15
2018-12-30T10:25:17.411Z,101393.29
2018-12-30T10:27:47.156Z,101391.09
2018-12-30T10:30:16.627Z,101391.56
2018-12-30T10:32:46.399Z,101389.27
2018-12-30T10:35:15.943Z,101384.86
2018-12-30T10:37:45.428Z,101377.69
2018-12-30T10:40:14.899Z,101380.37
2018-12-30T10:42:44.565Z,101385.73
2018-12-30T10:45:14.066Z,101382.66
2018-12-30T10:47:43.561Z,101381.70
2018-12-30T10:50:13.298Z,101384.39
2018-12-30T10:52:42.941Z,101388.02
2018-12-30T10:55:12.648Z,101393.29
2018-12-30T10:57:42.235Z,101396.05
2018-12-30T11:00:12.068Z,101394.72
2018-12-30T11:02:42.658Z,101392.90
2018-12-30T11:05:12.275Z,101394.63
2018-12-30T11:07:41.915Z,101400.34
2018-12-30T11:10:11.542Z,101400.75
2018-12-30T11:12:41.150Z,101399.02
2018-12-30T11:15:10.710Z,101402.08
2018-12-30T11:17:40.251Z,101403.81
2018-12-30T11:20:09.939Z,101406.37
2018-12-30T11:22:39.677Z,101407.64
2018-12-30T11:25:09.135Z,101408.39
2018-12-30T11:27:38.595Z,101408.19
2018-12-30T11:30:09.271Z,101417.34
2018-12-30T11:32:39.166Z,101410.91
2018-12-30T11:35:09.048Z,101407.56
2018-12-30T11:37:38.705Z,101419.70
2018-12-30T11:40:08.357Z,101415.76
2018-12-30T11:42:37.999Z,101416.78
2018-12-30T11:45:07.687Z,101428.92
2018-12-30T11:47:37.268Z,101430.34
2018-12-30T11:50:07.819Z,101427.25
2018-12-30T11:52:37.307Z,101425.47
2018-12-30T11:55:06.917Z,101427.75
2018-12-30T11:57:36.376Z,101424.27
2018-12-30T12:00:07.208Z,101427.97
2018-12-30T12:02:38.918Z,101421.47
2018-12-30T12:05:08.371Z,101428.72
2018-12-30T12:07:37.917Z,101438.74
2018-12-30T12:10:07.705Z,101439.41
2018-12-30T12:12:37.327Z,101437.25
2018-12-30T12:15:07.224Z,101442.80
2018-12-30T12:17:36.845Z,101446.11
2018-12-30T12:20:06.676Z,101443.70
2018-12-30T12:22:36.233Z,101452.89
2018-12-30T12:25:06.407Z,101449.60
2018-12-30T12:27:35.908Z,101451.13
2018-12-30T12:30:06.845Z,101457.24
2018-12-30T12:32:36.999Z,101453.36
2018-12-30T12:35:07.287Z,101456.31
2018-12-30T12:37:36.799Z,101459.66
2018-12-30T12:40:06.391Z,101446.02
2018-12-30T12:42:35.865Z,101456.55
2018-12-30T12:45:05.857Z,101453.38
2018-12-30T12:47:35.334Z,101457.16
2018-12-30T12:50:04.900Z,101451.23
2018-12-30T12:52:34.473Z,101455.04
2018-12-30T12:55:03.929Z,101474.67
2018-12-30T12:57:33.526Z,101479.84
2018-12-30T13:00:02.926Z,101474.37
2018-12-30T13:02:32.424Z,101476.81
2018-12-30T13:05:01.922Z,101489.68
2018-12-30T13:07:31.388Z,101492.73
2018-12-30T13:10:00.793Z,101502.94
2018-12-30T13:12:30.273Z,101509.53
2018-12-30T13:14:59.930Z,101509.41
2018-12-30T13:17:29.429Z,101511.41
2018-12-30T13:19:58.892Z,101518.52
2018-12-30T13:22:28.355Z,101524.23
2018-12-30T13:24:57.818Z,101535.64
2018-12-30T13:27:27.311Z,101539.20
2018-12-30T13:29:56.767Z,101542.15
2018-12-30T13:32:26.273Z,101547.88
2018-12-30T13:34:55.728Z,101553.16
2018-12-30T13:37:25.333Z,101554.39
2018-12-30T13:39:54.917Z,101556.47
2018-12-30T13:42:24.358Z,101553.31
2018-12-30T13:44:55.355Z,101557.25
2018-12-30T13:47:25.000Z,101568.36
2018-12-30T13:49:54.660Z,101580.36
2018-12-30T13:52:25.880Z,101575.73
2018-12-30T13:54:55.535Z,101578.30
2018-12-30T13:57:26.755Z,101579.55
2018-12-30T13:59:56.179Z,101583.94
2018-12-30T14:02:25.611Z,101580.77
2018-12-30T14:04:55.364Z,101586.89
2018-12-30T14:07:24.817Z,101586.89
2018-12-30T14:09:54.258Z,101600.59
2018-12-30T14:12:23.825Z,101604.89
2018-12-30T14:14:53.411Z,101601.73
2018-12-30T14:17:22.971Z,101602.98
2018-12-30T14:19:52.566Z,101613.14
2018-12-30T14:22:22.080Z,101610.45
2018-12-30T14:24:55.383Z,101624.64
2018-12-30T14:27:22.937Z,101631.27
2018-12-30T14:29:52.399Z,101644.11
2018-12-30T14:32:35.762Z,101649.37
2018-12-30T14:35:06.317Z,101640.34
2018-12-30T14:37:35.786Z,101650.98
2018-12-30T14:40:06.222Z,101653.19
2018-12-30T14:42:41.161Z,101652.23
2018-12-30T14:45:10.731Z,101665.56
2018-12-30T14:47:40.436Z,101661.91
2018-12-30T14:50:12.020Z,101664.00
2018-12-30T14:52:41.625Z,101669.77
2018-12-30T14:55:11.188Z,101681.75
2018-12-30T14:57:40.675Z,101679.45
2018-12-30T15:00:11.163Z,101679.33
2018-12-30T15:02:40.632Z,101679.20
2018-12-30T15:05:10.118Z,101684.50
2018-12-30T15:07:39.635Z,101682.67
2018-12-30T15:10:09.218Z,101688.80
2018-12-30T15:12:38.659Z,101684.16
2018-12-30T15:15:08.235Z,101702.98
2018-12-30T15:17:37.744Z,101702.87
2018-12-30T15:20:07.830Z,101700.59
2018-12-30T15:22:37.657Z,101703.67
2018-12-30T15:25:11.551Z,101706.72
2018-12-30T15:27:38.821Z,101714.31
2018-12-30T15:30:09.500Z,101714.22
2018-12-30T15:32:38.987Z,101716.91
2018-12-30T15:35:08.462Z,101725.81
2018-12-30T15:37:37.927Z,101726.20
2018-12-30T15:40:07.510Z,101733.33
2018-12-30T15:42:39.392Z,101738.70
2018-12-30T15:45:08.882Z,101743.57
2018-12-30T15:47:38.493Z,101746.27
2018-12-30T15:50:09.199Z,101751.16
2018-12-30T15:52:38.751Z,101754.25
2018-12-30T15:55:08.238Z,101753.38
2018-12-30T15:57:37.675Z,101756.94
2018-12-30T16:00:08.447Z,101754.60
2018-12-30T16:02:37.874Z,101755.11
2018-12-30T16:05:07.504Z,101753.64
2018-12-30T16:07:37.038Z,101754.99
2018-12-30T16:10:07.877Z,101761.72
2018-12-30T16:12:37.451Z,101767.48
2018-12-30T16:15:07.020Z,101767.97
2018-12-30T16:17:36.472Z,101784.47
2018-12-30T16:20:07.207Z,101780.81
2018-12-30T16:22:36.718Z,101783.51
2018-12-30T16:25:06.533Z,101792.80
2018-12-30T16:27:35.906Z,101796.75
2018-12-30T16:30:05.740Z,101800.79
2018-12-30T16:32:38.968Z,101798.48
2018-12-30T16:35:08.535Z,101801.18
2018-12-30T16:37:37.999Z,101799.23
2018-12-30T16:40:07.610Z,101813.05
2018-12-30T16:42:37.181Z,101808.53
2018-12-30T16:45:07.239Z,101806.70
2018-12-30T16:47:41.720Z,101807.58
2018-12-30T16:50:08.530Z,101814.18
2018-12-30T16:52:38.011Z,101815.05
2018-12-30T16:55:07.437Z,101814.09
2018-12-30T16:57:37.025Z,101819.83
2018-12-30T17:00:08.536Z,101823.39
2018-12-30T17:02:37.978Z,101819.74
2018-12-30T17:05:09.082Z,101831.86
2018-12-30T17:07:38.627Z,101826.47
2018-12-30T17:10:09.424Z,101830.86
2018-12-30T17:12:38.896Z,101829.52
2018-12-30T17:15:09.031Z,101835.77
2018-12-30T17:17:38.875Z,101837.50
2018-12-30T17:20:08.466Z,101840.08
2018-12-30T17:22:37.942Z,101845.84
2018-12-30T17:25:08.271Z,101850.24
2018-12-30T17:27:38.777Z,101849.28
2018-12-30T17:30:10.132Z,101843.78
2018-12-30T17:32:39.609Z,101850.90
2018-12-30T17:35:09.077Z,101850.90
2018-12-30T17:37:38.617Z,101850.78
2018-12-30T17:40:08.987Z,101855.33
2018-12-30T17:42:38.412Z,101858.02
2018-12-30T17:45:08.092Z,101861.06
2018-12-30T17:47:37.501Z,101860.11
2018-12-30T17:50:08.799Z,101859.12
2018-12-30T17:52:38.317Z,101861.34
2018-12-30T17:55:07.810Z,101861.81
2018-12-30T17:57:37.347Z,101867.20
2018-12-30T18:00:07.667Z,101877.01
2018-12-30T18:02:37.108Z,101877.87
2018-12-30T18:05:08.219Z,101884.97
2018-12-30T18:07:37.788Z,101897.95
2018-12-30T18:10:07.664Z,101898.81
2018-12-30T18:12:37.206Z,101911.41
2018-12-30T18:15:07.367Z,101909.97
2018-12-30T18:17:41.428Z,101913.50
2018-12-30T18:20:08.323Z,101912.66
2018-12-30T18:22:37.774Z,101912.55
2018-12-30T18:25:07.572Z,101919.27
2018-12-30T18:27:37.086Z,101920.63
2018-12-30T18:30:07.337Z,101933.60
2018-12-30T18:32:42.854Z,101942.91
2018-12-30T18:35:12.614Z,101947.45
2018-12-30T18:37:42.149Z,101948.30
2018-12-30T18:40:11.649Z,101956.02
2018-12-30T18:42:41.105Z,101952.84
2018-12-30T18:45:11.566Z,101959.18
2018-12-30T18:47:41.040Z,101959.66
2018-12-30T18:50:10.550Z,101961.12
2018-12-30T18:52:40.031Z,101966.11
2018-12-30T18:55:09.569Z,101968.42
2018-12-30T18:57:39.064Z,101969.41
2018-12-30T19:00:10.527Z,101975.39
2018-12-30T19:02:40.032Z,101980.86
2018-12-30T19:05:09.814Z,101977.02
2018-12-30T19:07:39.458Z,101981.17
2018-12-30T19:10:09.086Z,101988.02
2018-12-30T19:12:38.546Z,101994.84
2018-12-30T19:15:08.007Z,101995.80
2018-12-30T19:17:37.494Z,101998.60
2018-12-30T19:20:07.014Z,102004.10
2018-12-30T19:22:36.446Z,102005.17
2018-12-30T19:25:06.404Z,102011.98
2018-12-30T19:27:35.930Z,102014.80
2018-12-30T19:30:06.784Z,102011.34
2018-12-30T19:32:36.178Z,102015.11
2018-12-30T19:35:05.582Z,102007.52
2018-12-30T19:37:35.968Z,102016.54
2018-12-30T19:40:06.533Z,102006.37
2018-12-30T19:42:36.000Z,102008.66
2018-12-30T19:45:05.890Z,102007.91
2018-12-30T19:47:35.337Z,102010.72
2018-12-30T19:50:04.909Z,102018.00
2018-12-30T19:52:34.362Z,102021.28
2018-12-30T19:55:05.668Z,102017.84
2018-12-30T19:57:36.900Z,102015.35
2018-12-30T20:00:08.153Z,102015.91
2018-12-30T20:02:37.608Z,102019.66
2018-12-30T20:05:07.055Z,102014.88
2018-12-30T20:07:36.705Z,102011.39
2018-12-30T20:10:06.929Z,102016.02
2018-12-30T20:12:36.368Z,102018.23
2018-12-30T20:15:06.282Z,102020.17
2018-12-30T20:17:35.843Z,102020.64
2018-12-30T20:20:05.763Z,102013.16
2018-12-30T20:22:35.262Z,102025.34
2018-12-30T20:25:04.707Z,102019.09
2018-12-30T20:27:34.121Z,102033.05
2018-12-30T20:30:03.643Z,102033.14
2018-12-30T20:32:33.159Z,102037.17
2018-12-30T20:35:02.588Z,102043.03
2018-12-30T20:37:32.099Z,102044.48
2018-12-30T20:40:01.601Z,102043.61
2018-12-30T20:42:31.299Z,102045.94
2018-12-30T20:45:00.731Z,102055.83
2018-12-30T20:47:30.229Z,102058.13
2018-12-30T20:49:59.716Z,102057.25
2018-12-30T20:52:29.200Z,102057.77
2018-12-30T20:54:58.727Z,102061.41
2018-12-30T20:57:28.180Z,102065.03
2018-12-30T20:59:57.606Z,102069.94
2018-12-30T21:02:27.148Z,102073.22
2018-12-30T21:04:56.964Z,102071.88
2018-12-30T21:07:26.463Z,102076.38
2018-12-30T21:09:55.904Z,102076.38
2018-12-30T21:12:25.539Z,102077.65
2018-12-30T21:14:55.006Z,102074.95
2018-12-30T21:17:24.674Z,102072.75
2018-12-30T21:19:54.136Z,102072.27
2018-12-30T21:22:23.638Z,102077.14
2018-12-30T21:24:53.196Z,102078.01
2018-12-30T21:27:22.659Z,102077.53
2018-12-30T21:29:53.051Z,102083.02
2018-12-30T21:32:22.532Z,102081.17
2018-12-30T21:34:51.935Z,102083.86
2018-12-30T21:37:21.416Z,102086.55
2018-12-30T21:39:50.980Z,102088.41
2018-12-30T21:42:20.454Z,102091.56
2018-12-30T21:44:49.930Z,102094.26
2018-12-30T21:47:19.407Z,102090.70
2018-12-30T21:49:48.835Z,102092.91
2018-12-30T21:52:18.252Z,102097.03
2018-12-30T21:54:47.843Z,102096.66
2018-12-30T21:57:17.365Z,102097.50
2018-12-30T21:59:46.879Z,102096.66
2018-12-30T22:02:16.436Z,102101.17
2018-12-30T22:04:45.844Z,102106.55
2018-12-30T22:07:15.298Z,102114.22
2018-12-30T22:09:44.821Z,102113.34
2018-12-30T22:12:14.329Z,102116.04
2018-12-30T22:14:43.943Z,102112.52
2018-12-30T22:17:13.420Z,102111.25
2018-12-30T22:19:42.969Z,102111.25
2018-12-30T22:22:12.551Z,102117.49
2018-12-30T22:24:42.087Z,102120.29
2018-12-30T22:27:11.616Z,102123.34
2018-12-30T22:29:41.067Z,102118.44
2018-12-30T22:32:10.521Z,102123.53
2018-12-30T22:34:40.003Z,102126.62
2018-12-30T22:37:09.427Z,102129.42
2018-12-30T22:39:39.351Z,102138.83
2018-12-30T22:42:08.758Z,102133.53
2018-12-30T22:44:38.175Z,102132.66
2018-12-30T22:47:07.684Z,102132.77
2018-12-30T22:49:37.110Z,102137.27
2018-12-30T22:52:06.481Z,102141.78
2018-12-30T22:54:35.982Z,102143.62
2018-12-30T22:57:05.850Z,102153.98
2018-12-30T22:59:35.272Z,102144.66
2018-12-30T23:02:04.764Z,102155.05
2018-12-30T23:04:34.131Z,102156.39
2018-12-30T23:07:03.574Z,102162.23
2018-12-30T23:09:33.627Z,102165.40
2018-12-30T23:12:03.139Z,102164.53
2018-12-30T23:14:32.878Z,102174.05
2018-12-30T23:17:02.291Z,102168.20
2018-12-30T23:19:31.970Z,102173.64
2018-12-30T23:22:01.461Z,102175.86
2018-12-30T23:24:30.923Z,102180.37
2018-12-30T23:27:00.343Z,102183.16
2018-12-30T23:29:29.801Z,102185.85
2018-12-30T23:31:59.712Z,102180.08
2018-12-30T23:34:29.207Z,102185.96
2018-12-30T23:36:58.630Z,102183.27
2018-12-30T23:39:28.612Z,102187.30
2018-12-30T23:41:58.127Z,102184.22
2018-12-30T23:44:27.529Z,102191.41
2018-12-30T23:46:57.473Z,102184.33
2018-12-30T23:49:26.889Z,102183.45
2018-12-30T23:51:56.322Z,102189.30
2018-12-30T23:54:25.831Z,102186.61
2018-12-30T23:56:55.394Z,102188.44
2018-12-30T23:59:24.806Z,102189.41
